Leesburg, New Jersey
Current Conditions -  °F | °C
As of 3:54 PM on Sunday 21 Dec 2014 (Local Time) from KMIV Reporting Station
Clear Clear  
Wind Chill: 35°   Ceiling: Unl
Heat Index: 39°   Visibility: 10mi
Dew Point: 23°   Wind: 6mph
Humidity: 53%   Direction: 340°NNW
Pressure: 30.28"   Gusts: NA
Location:  39.26°N, 74.99°W
Report Text: KMIV 212054Z AUTO 34005KT 10SM CLR 04/M05 A3028 RMK AO2 SLP253 T00391050 56005
Loading
Personal Weather Stations






























Interactive Weather Map New forecast layout! Learn more

10-Day Weather Forecast

Advertisements
Track Severe Weather on mobile